Terminal Aerodrome Forecast
Issued by NWS Wilmington, OH

Current Version | Previous Version | Graphics & Text | Print | Product List | Glossary On
Versions: 1 2 3 4 5 6 7 8 9 10 11 12 13 14 15 16 17 18 19 20 21 22 23 24 25 26 27 28 29 30 31
000
FTUS41 KILN 271100
TAFILN
TAF
KILN 271130Z 2712/2812 21009KT P6SM VCSH OVC008
      TEMPO 2712/2713 OVC004
     FM271400 25012G20KT P6SM VCSH OVC018
     FM271700 28012G20KT P6SM BKN025
     FM272100 30014G24KT P6SM BKN035
     FM280200 31012G22KT P6SM SCT040=

USA.gov is the U.S. government's official web portal to all federal, state and local government web resources and services.